Time;durP1;ratioP1;P1;durP2;ratioP2;P2;SDS_P1;SDS_P2;PMS_P1;PMS_P2;Temp;Humidity;BMP_temperature;BMP_pressure;BME280_temperature;BME280_humidity;BME280_pressure;Samples;Min_cycle;Max_cycle;Signal;HPM_P1;HPM_P2
2022/03/16 00:02:20;;;;;;;208.60;9.48;;;;;;;;;;8142442;28;20637;-58
2022/03/16 00:06:20;;;;;;;246.77;10.32;;;;;;;;;;8144149;28;20019;-58
2022/03/16 00:10:20;;;;;;;114.50;7.13;;;;;;;;;;8142880;28;20027;-59
2022/03/16 00:14:20;;;;;;;109.20;6.45;;;;;;;;;;8144658;29;20027;-58
2022/03/16 00:18:20;;;;;;;77.20;5.45;;;;;;;;;;8140956;28;20146;-58
2022/03/16 00:22:21;;;;;;;38.53;4.70;;;;;;;;;;8142866;28;20031;-58
2022/03/16 00:26:21;;;;;;;6.20;4.35;;;;;;;;;;8143380;28;20207;-58
2022/03/16 00:30:21;;;;;;;4.57;4.07;;;;;;;;;;8140309;28;20023;-58
2022/03/16 00:34:21;;;;;;;5.63;4.95;;;;;;;;;;8141744;29;20047;-59
2022/03/16 00:38:21;;;;;;;4.82;4.15;;;;;;;;;;8143579;28;20023;-58
2022/03/16 00:42:21;;;;;;;5.35;4.70;;;;;;;;;;8142022;28;20449;-58
2022/03/16 00:46:22;;;;;;;6.20;5.13;;;;;;;;;;8143468;28;20039;-58
2022/03/16 00:50:22;;;;;;;80.20;9.00;;;;;;;;;;8141775;28;20078;-58
2022/03/16 00:54:22;;;;;;;105.32;9.75;;;;;;;;;;8142555;28;20143;-58
2022/03/16 00:58:24;;;;;;;194.32;10.15;;;;;;;;;;8144971;29;20039;-58
2022/03/16 01:02:24;;;;;;;21.90;7.40;;;;;;;;;;8142966;28;20497;-57
2022/03/16 01:06:24;;;;;;;43.97;7.05;;;;;;;;;;8143230;29;20468;-58
2022/03/16 01:10:25;;;;;;;55.30;7.47;;;;;;;;;;8140148;29;20075;-58
2022/03/16 01:14:25;;;;;;;60.90;7.68;;;;;;;;;;8141845;29;20266;-58
2022/03/16 01:18:25;;;;;;;179.50;9.40;;;;;;;;;;8144613;28;20036;-58
2022/03/16 01:22:25;;;;;;;71.35;8.55;;;;;;;;;;8147747;28;20042;-58
2022/03/16 01:26:25;;;;;;;129.43;9.63;;;;;;;;;;8145770;28;20123;-58
2022/03/16 01:30:26;;;;;;;100.30;8.63;;;;;;;;;;8144911;28;20580;-58
2022/03/16 01:34:26;;;;;;;98.00;8.52;;;;;;;;;;8145684;29;20098;-58
2022/03/16 01:38:26;;;;;;;111.13;8.60;;;;;;;;;;8149243;29;20596;-58
2022/03/16 01:42:27;;;;;;;82.45;8.50;;;;;;;;;;8148235;29;20027;-58
2022/03/16 01:46:27;;;;;;;56.05;7.05;;;;;;;;;;8148619;28;20142;-57
2022/03/16 01:50:27;;;;;;;10.25;5.97;;;;;;;;;;8144960;28;20117;-57
2022/03/16 01:54:27;;;;;;;7.32;5.95;;;;;;;;;;8150009;29;20032;-58
2022/03/16 01:58:28;;;;;;;6.40;5.40;;;;;;;;;;8147616;28;20039;-59
2022/03/16 02:02:28;;;;;;;6.30;5.13;;;;;;;;;;8146915;28;20142;-58
2022/03/16 02:06:28;;;;;;;7.68;5.88;;;;;;;;;;8148853;28;20086;-58
2022/03/16 02:10:28;;;;;;;9.48;7.32;;;;;;;;;;8146732;29;20490;-58
2022/03/16 02:14:29;;;;;;;8.27;6.50;;;;;;;;;;8148346;28;20383;-58
2022/03/16 02:18:29;;;;;;;8.38;6.18;;;;;;;;;;8147657;28;20050;-58
2022/03/16 02:22:30;;;;;;;9.02;7.03;;;;;;;;;;8146097;28;20102;-58
2022/03/16 02:26:30;;;;;;;6.90;6.10;;;;;;;;;;8145596;29;20326;-58
2022/03/16 02:30:30;;;;;;;8.80;6.20;;;;;;;;;;8143820;28;20118;-58
2022/03/16 02:34:30;;;;;;;14.80;9.63;;;;;;;;;;8145806;28;20031;-58
2022/03/16 02:38:30;;;;;;;17.48;12.35;;;;;;;;;;8145738;28;20114;-58
2022/03/16 02:42:31;;;;;;;23.42;13.57;;;;;;;;;;8143838;29;20305;-59
2022/03/16 02:46:31;;;;;;;22.73;15.57;;;;;;;;;;8145789;28;20044;-58
2022/03/16 02:50:31;;;;;;;23.87;16.37;;;;;;;;;;8145986;28;20034;-59
2022/03/16 02:54:31;;;;;;;23.67;15.80;;;;;;;;;;8145876;29;20322;-58
2022/03/16 02:58:31;;;;;;;26.52;17.13;;;;;;;;;;8147662;28;20032;-58
2022/03/16 03:02:32;;;;;;;22.83;14.73;;;;;;;;;;8144845;28;20051;-58
2022/03/16 03:06:32;;;;;;;26.50;17.77;;;;;;;;;;8146180;29;20216;-58
2022/03/16 03:10:32;;;;;;;28.50;18.93;;;;;;;;;;8144656;28;20089;-58
2022/03/16 03:14:33;;;;;;;28.27;19.27;;;;;;;;;;8146557;29;20255;-58
2022/03/16 03:18:37;;;;;;;28.85;19.45;;;;;;;;;;8144135;28;20050;-58
2022/03/16 03:22:38;;;;;;;28.52;18.58;;;;;;;;;;8146688;29;20031;-58
2022/03/16 03:26:38;;;;;;;35.22;19.98;;;;;;;;;;8145320;29;20609;-58
2022/03/16 03:30:38;;;;;;;33.20;20.27;;;;;;;;;;8146038;28;20829;-58
2022/03/16 03:34:39;;;;;;;32.45;19.95;;;;;;;;;;8145477;29;20622;-58
2022/03/16 03:38:39;;;;;;;32.35;22.23;;;;;;;;;;8141832;29;20393;-58
2022/03/16 03:42:39;;;;;;;35.47;21.65;;;;;;;;;;8144445;28;20055;-59
2022/03/16 03:46:40;;;;;;;30.30;20.50;;;;;;;;;;8145105;28;20044;-58
2022/03/16 03:50:40;;;;;;;29.83;20.48;;;;;;;;;;8145703;28;20580;-59
2022/03/16 03:54:40;;;;;;;33.15;22.80;;;;;;;;;;8142802;28;21233;-59
2022/03/16 03:58:40;;;;;;;29.38;21.02;;;;;;;;;;8143871;29;20545;-58
2022/03/16 04:02:50;;;;;;;39.35;24.75;;;;;;;;;;8143692;28;20067;-58
2022/03/16 04:06:50;;;;;;;33.05;22.45;;;;;;;;;;8145158;29;20070;-59
2022/03/16 04:10:50;;;;;;;42.17;24.60;;;;;;;;;;8143114;29;20031;-59
2022/03/16 04:14:51;;;;;;;44.60;27.30;;;;;;;;;;8142124;28;20419;-59
2022/03/16 04:18:51;;;;;;;44.05;26.80;;;;;;;;;;8143214;28;20146;-59
2022/03/16 04:22:51;;;;;;;42.13;24.87;;;;;;;;;;8143936;29;20459;-59
2022/03/16 04:26:51;;;;;;;48.63;26.98;;;;;;;;;;8143679;29;20286;-58
2022/03/16 04:30:51;;;;;;;256.63;31.13;;;;;;;;;;8139907;28;20046;-59
2022/03/16 04:34:52;;;;;;;432.33;33.10;;;;;;;;;;8141084;28;20439;-59
2022/03/16 04:38:52;;;;;;;101.13;27.45;;;;;;;;;;8141693;29;20532;-58
2022/03/16 04:42:52;;;;;;;42.95;25.88;;;;;;;;;;8143712;29;20046;-59
2022/03/16 04:46:52;;;;;;;45.28;27.63;;;;;;;;;;8140665;28;20122;-58
2022/03/16 04:50:53;;;;;;;44.95;27.65;;;;;;;;;;8142073;28;20023;-58
2022/03/16 04:54:54;;;;;;;60.03;28.25;;;;;;;;;;8142615;28;20531;-59
2022/03/16 04:58:54;;;;;;;98.10;30.83;;;;;;;;;;8142387;29;20019;-59
2022/03/16 05:02:54;;;;;;;456.45;37.90;;;;;;;;;;8140947;28;20508;-58
2022/03/16 05:06:54;;;;;;;379.77;34.85;;;;;;;;;;8142674;29;20023;-58
2022/03/16 05:10:54;;;;;;;48.25;26.60;;;;;;;;;;8141133;29;20023;-59
2022/03/16 05:14:54;;;;;;;44.85;25.98;;;;;;;;;;8142135;28;20136;-58
2022/03/16 05:18:55;;;;;;;44.35;25.42;;;;;;;;;;8141013;28;20145;-59
2022/03/16 05:22:55;;;;;;;37.42;23.42;;;;;;;;;;8143466;28;20129;-58
2022/03/16 05:26:55;;;;;;;40.15;24.33;;;;;;;;;;8143064;29;20295;-58
2022/03/16 05:30:55;;;;;;;35.88;23.33;;;;;;;;;;8140425;28;20089;-58
2022/03/16 05:34:56;;;;;;;36.40;24.02;;;;;;;;;;8142259;29;20033;-59
2022/03/16 05:38:57;;;;;;;37.45;23.80;;;;;;;;;;8140408;28;20066;-58
2022/03/16 05:42:57;;;;;;;42.10;25.83;;;;;;;;;;8143412;29;20372;-59
2022/03/16 05:46:57;;;;;;;33.15;22.40;;;;;;;;;;8140884;28;20124;-59
2022/03/16 05:50:57;;;;;;;36.35;23.63;;;;;;;;;;8141308;28;20035;-59
2022/03/16 05:54:58;;;;;;;34.95;23.48;;;;;;;;;;8141345;28;20051;-59
2022/03/16 05:58:58;;;;;;;32.85;22.85;;;;;;;;;;8143687;29;20780;-58
2022/03/16 06:02:59;;;;;;;39.63;23.42;;;;;;;;;;8139364;28;20036;-59
2022/03/16 06:06:59;;;;;;;36.17;22.27;;;;;;;;;;8146387;29;20041;-59
2022/03/16 06:10:59;;;;;;;57.97;24.48;;;;;;;;;;8145301;28;20396;-58
2022/03/16 06:14:59;;;;;;;74.50;22.65;;;;;;;;;;8147670;29;20078;-59
2022/03/16 06:18:59;;;;;;;76.78;20.70;;;;;;;;;;8146354;28;20630;-59
2022/03/16 06:22:59;;;;;;;240.13;21.00;;;;;;;;;;8147986;28;20416;-58
2022/03/16 06:27:00;;;;;;;599.55;27.80;;;;;;;;;;8145354;29;20375;-59
2022/03/16 06:31:00;;;;;;;259.70;18.55;;;;;;;;;;8141235;28;20358;-59
2022/03/16 06:35:01;;;;;;;715.15;29.67;;;;;;;;;;8146779;28;20141;-59
2022/03/16 06:39:01;;;;;;;532.15;25.45;;;;;;;;;;8145453;28;20450;-59
2022/03/16 06:43:02;;;;;;;516.03;25.77;;;;;;;;;;8148510;29;20119;-59
2022/03/16 06:47:02;;;;;;;465.05;26.13;;;;;;;;;;8143666;28;20122;-59
2022/03/16 06:51:02;;;;;;;673.57;29.80;;;;;;;;;;8144199;28;20019;-58
2022/03/16 06:55:02;;;;;;;804.65;33.03;;;;;;;;;;8147550;28;20602;-58
2022/03/16 06:59:03;;;;;;;437.80;24.35;;;;;;;;;;8146211;28;20034;-58
2022/03/16 07:03:05;;;;;;;754.20;28.88;;;;;;;;;;8144899;28;20539;-58
2022/03/16 07:07:05;;;;;;;231.13;17.88;;;;;;;;;;8146585;29;20417;-58
2022/03/16 07:11:07;;;;;;;257.92;18.08;;;;;;;;;;8145096;29;20023;-59
2022/03/16 07:15:07;;;;;;;187.02;15.18;;;;;;;;;;8145507;28;20114;-58
2022/03/16 07:19:08;;;;;;;170.18;13.55;;;;;;;;;;8145707;28;20333;-58
2022/03/16 07:23:10;;;;;;;327.50;17.13;;;;;;;;;;8144849;28;20049;-59
2022/03/16 07:27:12;;;;;;;254.25;15.18;;;;;;;;;;8147407;29;20485;-58
2022/03/16 07:31:12;;;;;;;125.40;14.52;;;;;;;;;;8144672;28;20043;-58
2022/03/16 07:35:13;;;;;;;343.63;18.27;;;;;;;;;;8145729;29;20031;-59
2022/03/16 07:39:13;;;;;;;117.75;15.50;;;;;;;;;;8143082;29;20028;-59
2022/03/16 07:43:14;;;;;;;429.75;21.33;;;;;;;;;;8145153;28;20684;-59
2022/03/16 07:47:14;;;;;;;237.65;18.70;;;;;;;;;;8133318;28;20028;-59
2022/03/16 07:51:14;;;;;;;415.90;19.77;;;;;;;;;;8138391;28;20035;-59
2022/03/16 07:55:16;;;;;;;203.35;17.25;;;;;;;;;;8141818;28;20019;-58
2022/03/16 07:59:16;;;;;;;74.57;14.40;;;;;;;;;;8139010;29;20123;-59
2022/03/16 08:03:16;;;;;;;223.63;16.65;;;;;;;;;;8132298;28;21015;-60
2022/03/16 08:07:16;;;;;;;544.22;23.55;;;;;;;;;;8139464;28;20498;-59
2022/03/16 08:11:17;;;;;;;222.70;17.58;;;;;;;;;;8138204;28;20342;-59
2022/03/16 08:15:17;;;;;;;173.38;17.55;;;;;;;;;;8137286;28;20210;-58
2022/03/16 08:19:18;;;;;;;378.65;22.38;;;;;;;;;;8138630;28;20030;-59
2022/03/16 08:23:18;;;;;;;266.25;19.73;;;;;;;;;;8138974;28;20020;-59
2022/03/16 08:27:19;;;;;;;92.53;16.23;;;;;;;;;;8138834;28;20032;-59
2022/03/16 08:31:19;;;;;;;115.63;16.73;;;;;;;;;;8138990;28;20420;-59
2022/03/16 08:35:20;;;;;;;90.93;16.55;;;;;;;;;;8140214;29;20035;-58
2022/03/16 08:39:20;;;;;;;282.20;19.25;;;;;;;;;;8137850;28;20055;-59
2022/03/16 08:43:20;;;;;;;165.50;16.48;;;;;;;;;;8139908;28;20253;-59
2022/03/16 08:47:21;;;;;;;544.90;26.63;;;;;;;;;;8139190;28;20047;-59
2022/03/16 08:51:21;;;;;;;174.15;18.85;;;;;;;;;;8139180;28;20268;-59
2022/03/16 08:55:22;;;;;;;74.65;17.15;;;;;;;;;;8139630;28;20118;-59
2022/03/16 08:59:23;;;;;;;54.33;15.75;;;;;;;;;;8136018;28;20631;-59
2022/03/16 09:03:23;;;;;;;41.65;15.90;;;;;;;;;;8139108;28;20429;-59
2022/03/16 09:07:23;;;;;;;24.08;16.98;;;;;;;;;;8136182;28;20762;-59
2022/03/16 09:11:23;;;;;;;26.05;17.08;;;;;;;;;;8137384;29;20111;-58
2022/03/16 09:15:23;;;;;;;29.08;19.20;;;;;;;;;;8139583;28;20806;-60
2022/03/16 09:19:24;;;;;;;29.27;18.95;;;;;;;;;;8138184;28;20031;-58
2022/03/16 09:23:24;;;;;;;30.13;20.73;;;;;;;;;;8138389;28;20098;-59
2022/03/16 09:27:25;;;;;;;23.63;16.98;;;;;;;;;;8138130;28;20383;-60
2022/03/16 09:31:25;;;;;;;26.98;18.38;;;;;;;;;;8136923;28;20043;-59
2022/03/16 09:35:27;;;;;;;25.00;17.15;;;;;;;;;;8138461;28;20036;-59
2022/03/16 09:39:27;;;;;;;23.52;15.35;;;;;;;;;;8139928;28;20094;-59
2022/03/16 09:43:30;;;;;;;25.67;16.45;;;;;;;;;;8142525;28;20027;-60
2022/03/16 09:47:30;;;;;;;22.27;16.00;;;;;;;;;;8144454;28;20090;-59
2022/03/16 09:51:35;;;;;;;20.70;15.57;;;;;;;;;;8142136;28;20031;-59
2022/03/16 09:55:35;;;;;;;;;;;;;;;;;;8145739;28;20108;-59
2022/03/16 09:59:37;;;;;;;20.40;15.60;;;;;;;;;;8144744;28;20304;-59
2022/03/16 10:03:37;;;;;;;19.23;15.02;;;;;;;;;;8144061;28;20044;-60
2022/03/16 10:07:37;;;;;;;29.90;17.70;;;;;;;;;;8137495;28;20036;-59
2022/03/16 10:16:08;;;;;;;25.27;17.85;;;;;;;;;;8143481;28;20898;-59
2022/03/16 10:20:09;;;;;;;24.90;18.88;;;;;;;;;;8142166;28;20509;-59
2022/03/16 10:24:11;;;;;;;27.13;19.10;;;;;;;;;;8143379;28;20597;-59
2022/03/16 10:28:14;;;;;;;26.48;19.80;;;;;;;;;;8142266;28;20466;-59
2022/03/16 10:32:14;;;;;;;28.30;17.90;;;;;;;;;;8141735;28;20525;-59
2022/03/16 10:36:20;;;;;;;23.05;16.95;;;;;;;;;;8141578;28;20135;-59
2022/03/16 10:40:23;;;;;;;24.92;18.48;;;;;;;;;;8143135;28;20567;-59
2022/03/16 10:48:56;;;;;;;22.60;16.52;;;;;;;;;;8139350;28;20033;-59
2022/03/16 10:52:56;;;;;;;19.38;15.00;;;;;;;;;;8143619;28;20031;-60
2022/03/16 10:56:57;;;;;;;20.95;14.38;;;;;;;;;;8141821;28;20058;-60
2022/03/16 11:00:58;;;;;;;19.90;15.48;;;;;;;;;;8139437;28;20031;-59
2022/03/16 11:04:58;;;;;;;16.98;14.40;;;;;;;;;;8142957;28;20027;-59
2022/03/16 11:08:59;;;;;;;19.20;14.23;;;;;;;;;;8142022;29;20106;-59
2022/03/16 11:17:19;;;;;;;15.77;12.98;;;;;;;;;;8141701;28;20046;-60
2022/03/16 11:21:25;;;;;;;16.27;12.73;;;;;;;;;;8138687;28;20450;-60
2022/03/16 11:25:25;;;;;;;16.92;13.65;;;;;;;;;;8141905;29;20268;-60
2022/03/16 11:29:34;;;;;;;16.60;12.70;;;;;;;;;;8140785;28;20043;-60
2022/03/16 11:33:47;;;;;;;15.82;12.75;;;;;;;;;;8138786;28;20051;-60
2022/03/16 11:37:48;;;;;;;16.10;12.75;;;;;;;;;;8143077;28;20487;-60
2022/03/16 11:41:52;;;;;;;18.33;13.75;;;;;;;;;;8139163;28;20951;-60
2022/03/16 11:45:54;;;;;;;15.43;13.43;;;;;;;;;;8141132;28;20039;-60
2022/03/16 11:50:05;;;;;;;17.05;13.77;;;;;;;;;;8141192;28;20035;-60
2022/03/16 11:54:05;;;;;;;17.15;13.18;;;;;;;;;;8138670;28;20030;-59
2022/03/16 11:58:16;;;;;;;15.15;12.73;;;;;;;;;;8139848;29;20020;-60
2022/03/16 12:02:18;;;;;;;16.25;12.68;;;;;;;;;;8128890;28;20764;-60
2022/03/16 12:06:19;;;;;;;13.65;11.65;;;;;;;;;;8126616;28;20277;-60
2022/03/16 12:10:21;;;;;;;14.25;12.55;;;;;;;;;;8136702;28;20146;-60
2022/03/16 12:14:22;;;;;;;13.90;11.50;;;;;;;;;;8138110;28;20039;-60
2022/03/16 12:18:25;;;;;;;14.98;12.23;;;;;;;;;;8139090;28;20037;-60
2022/03/16 12:22:25;;;;;;;14.23;11.87;;;;;;;;;;8138134;28;20035;-60
2022/03/16 12:26:28;;;;;;;14.18;12.13;;;;;;;;;;8136518;28;20199;-60
2022/03/16 12:30:28;;;;;;;14.75;11.98;;;;;;;;;;8139716;28;20058;-60
2022/03/16 12:34:29;;;;;;;15.82;12.95;;;;;;;;;;8136276;28;20027;-61
2022/03/16 12:38:30;;;;;;;16.42;12.88;;;;;;;;;;8140439;28;20038;-60
2022/03/16 12:42:33;;;;;;;15.50;13.05;;;;;;;;;;8136842;28;20049;-60
2022/03/16 12:46:47;;;;;;;16.90;12.85;;;;;;;;;;8138167;28;20356;-60
2022/03/16 12:50:47;;;;;;;14.87;13.07;;;;;;;;;;8136291;28;20031;-60
2022/03/16 12:54:47;;;;;;;14.07;12.57;;;;;;;;;;8137073;28;20043;-60
2022/03/16 12:58:52;;;;;;;15.45;13.15;;;;;;;;;;8137174;28;20030;-60
2022/03/16 13:02:52;;;;;;;;;;;;;;;;;;8137278;28;20574;-60
2022/03/16 13:06:53;;;;;;;16.85;11.68;;;;;;;;;;8134954;28;20620;-60
2022/03/16 13:11:15;;;;;;;14.48;12.05;;;;;;;;;;8137209;29;20571;-60
2022/03/16 13:15:23;;;;;;;13.65;12.10;;;;;;;;;;8139568;28;20452;-60
2022/03/16 13:19:24;;;;;;;15.90;13.10;;;;;;;;;;8138149;28;20027;-61
2022/03/16 13:23:31;;;;;;;13.60;12.15;;;;;;;;;;8138776;29;20098;-61
2022/03/16 13:27:35;;;;;;;16.95;12.60;;;;;;;;;;8141416;29;20118;-60
2022/03/16 13:31:36;;;;;;;;;;;;;;;;;;8141322;28;20050;-60
2022/03/16 13:35:36;;;;;;;15.77;12.60;;;;;;;;;;8145978;29;19914;-60
2022/03/16 13:39:36;;;;;;;14.03;12.50;;;;;;;;;;8146672;28;20031;-60
2022/03/16 13:43:38;;;;;;;16.33;13.10;;;;;;;;;;8147037;29;20299;-61
2022/03/16 13:47:38;;;;;;;13.52;11.68;;;;;;;;;;8138218;28;20096;-60
2022/03/16 13:51:59;;;;;;;14.85;12.43;;;;;;;;;;8142292;28;20180;-60
2022/03/16 13:56:12;;;;;;;16.48;12.85;;;;;;;;;;8143751;29;20023;-61
2022/03/16 14:00:16;;;;;;;14.38;12.88;;;;;;;;;;8135583;28;20024;-60
2022/03/16 14:04:18;;;;;;;16.63;12.93;;;;;;;;;;8141926;29;20102;-60
2022/03/16 14:08:19;;;;;;;15.35;13.18;;;;;;;;;;8141541;29;20145;-60
2022/03/16 14:12:22;;;;;;;15.05;12.98;;;;;;;;;;8140450;29;20050;-60
2022/03/16 14:16:22;;;;;;;15.80;12.65;;;;;;;;;;8140387;28;20027;-60
2022/03/16 14:20:27;;;;;;;14.43;12.45;;;;;;;;;;8141524;28;20064;-60
2022/03/16 14:24:27;;;;;;;14.15;12.40;;;;;;;;;;8142208;28;20353;-60
2022/03/16 14:28:27;;;;;;;12.50;11.20;;;;;;;;;;8146961;29;20055;-60
2022/03/16 14:32:28;;;;;;;15.93;12.52;;;;;;;;;;8143746;28;20047;-60
2022/03/16 14:36:28;;;;;;;14.88;12.40;;;;;;;;;;8142575;28;20038;-60
2022/03/16 14:40:28;;;;;;;16.42;14.02;;;;;;;;;;8135566;28;20039;-60
2022/03/16 14:44:28;;;;;;;15.68;13.82;;;;;;;;;;8142274;28;20098;-61
2022/03/16 14:48:28;;;;;;;15.68;13.73;;;;;;;;;;8138446;28;20035;-60
2022/03/16 14:52:29;;;;;;;16.52;14.00;;;;;;;;;;8140227;28;20066;-60
2022/03/16 14:56:30;;;;;;;14.97;13.17;;;;;;;;;;8141550;28;20305;-60
2022/03/16 15:00:31;;;;;;;15.82;13.82;;;;;;;;;;8137685;28;20031;-60
2022/03/16 15:04:32;;;;;;;17.70;13.75;;;;;;;;;;8142574;28;20079;-60
2022/03/16 15:08:32;;;;;;;15.73;13.65;;;;;;;;;;8142896;28;20461;-60
2022/03/16 15:12:33;;;;;;;19.73;14.00;;;;;;;;;;8143103;28;20023;-60
2022/03/16 15:16:33;;;;;;;16.83;14.73;;;;;;;;;;8146500;28;20428;-60
2022/03/16 15:20:33;;;;;;;22.83;15.57;;;;;;;;;;8133959;28;20126;-60
2022/03/16 15:24:34;;;;;;;17.33;14.75;;;;;;;;;;8144631;29;20574;-60
2022/03/16 15:28:34;;;;;;;16.30;13.67;;;;;;;;;;8145707;29;20961;-60
2022/03/16 15:32:34;;;;;;;16.50;13.60;;;;;;;;;;8141506;28;20577;-60
2022/03/16 15:36:36;;;;;;;17.00;13.80;;;;;;;;;;8143778;28;20035;-60
2022/03/16 15:44:55;;;;;;;16.42;13.80;;;;;;;;;;8144767;29;20476;-60
2022/03/16 15:48:55;;;;;;;17.75;15.00;;;;;;;;;;8144938;28;20039;-60
2022/03/16 15:52:56;;;;;;;17.58;14.32;;;;;;;;;;8145248;29;20190;-60
2022/03/16 15:56:56;;;;;;;16.55;14.35;;;;;;;;;;8144312;28;20567;-60
2022/03/16 16:00:57;;;;;;;18.63;15.15;;;;;;;;;;8143522;28;20079;-60
2022/03/16 16:04:57;;;;;;;17.10;14.57;;;;;;;;;;8143901;29;20351;-60
2022/03/16 16:08:59;;;;;;;18.67;14.40;;;;;;;;;;8142024;29;20568;-60
2022/03/16 16:12:59;;;;;;;16.33;13.88;;;;;;;;;;8146216;29;20348;-60
2022/03/16 16:17:00;;;;;;;17.55;14.13;;;;;;;;;;8144494;28;20039;-60
2022/03/16 16:21:00;;;;;;;16.08;13.25;;;;;;;;;;8144084;28;20301;-60
2022/03/16 16:25:00;;;;;;;16.15;13.45;;;;;;;;;;8143287;29;20614;-60
2022/03/16 16:29:03;;;;;;;18.58;13.15;;;;;;;;;;8144137;28;20343;-60
2022/03/16 16:33:04;;;;;;;17.08;13.25;;;;;;;;;;8141671;28;20039;-60
2022/03/16 16:37:04;;;;;;;16.30;14.00;;;;;;;;;;8146651;28;20118;-60
2022/03/16 16:41:05;;;;;;;21.20;15.23;;;;;;;;;;8144559;29;20058;-60
2022/03/16 16:45:06;;;;;;;18.52;15.32;;;;;;;;;;8142319;28;20117;-61
2022/03/16 16:49:06;;;;;;;19.52;15.32;;;;;;;;;;8142192;28;20028;-60
2022/03/16 16:53:07;;;;;;;18.63;14.50;;;;;;;;;;8141785;29;20034;-60
2022/03/16 16:57:11;;;;;;;16.13;13.85;;;;;;;;;;8142996;29;20019;-60
2022/03/16 17:01:12;;;;;;;17.65;13.93;;;;;;;;;;8141217;28;20432;-60
2022/03/16 17:05:16;;;;;;;19.05;14.43;;;;;;;;;;8143333;29;20046;-60
2022/03/16 17:09:17;;;;;;;17.40;14.63;;;;;;;;;;8142003;29;20019;-60
2022/03/16 17:13:24;;;;;;;20.98;15.30;;;;;;;;;;8143140;29;20031;-60
2022/03/16 17:17:25;;;;;;;24.13;15.73;;;;;;;;;;8140736;28;20481;-60
2022/03/16 17:21:26;;;;;;;20.95;14.70;;;;;;;;;;8139892;28;20148;-60
2022/03/16 17:25:26;;;;;;;18.45;14.90;;;;;;;;;;8143552;29;20122;-60
2022/03/16 17:29:26;;;;;;;21.25;15.48;;;;;;;;;;8141056;29;20351;-60
2022/03/16 17:33:27;;;;;;;18.15;14.80;;;;;;;;;;8140541;28;20064;-60
2022/03/16 17:37:27;;;;;;;17.17;14.00;;;;;;;;;;8143674;28;20023;-60
2022/03/16 17:45:47;;;;;;;16.33;13.40;;;;;;;;;;8141364;28;20429;-60
2022/03/16 17:49:48;;;;;;;18.38;13.70;;;;;;;;;;8140460;28;20032;-60
2022/03/16 17:53:48;;;;;;;20.05;13.93;;;;;;;;;;8135935;28;20699;-60
2022/03/16 17:57:48;;;;;;;19.70;14.48;;;;;;;;;;8138933;29;20027;-60
2022/03/16 18:01:49;;;;;;;16.83;14.18;;;;;;;;;;8140922;28;20449;-60
2022/03/16 18:05:52;;;;;;;16.67;13.80;;;;;;;;;;8144647;28;20750;-60
2022/03/16 18:14:12;;;;;;;18.83;14.82;;;;;;;;;;8143649;28;20146;-59
2022/03/16 18:18:13;;;;;;;18.83;14.85;;;;;;;;;;8142892;28;20611;-59
2022/03/16 18:22:26;;;;;;;18.80;15.50;;;;;;;;;;8143289;28;20049;-60
2022/03/16 18:26:27;;;;;;;18.58;14.23;;;;;;;;;;8143336;28;20048;-59
2022/03/16 18:30:27;;;;;;;19.02;14.60;;;;;;;;;;8142395;28;20114;-60
2022/03/16 18:34:27;;;;;;;22.20;14.57;;;;;;;;;;8143524;28;20472;-60
2022/03/16 18:38:28;;;;;;;18.00;14.30;;;;;;;;;;8142844;29;20291;-60
2022/03/16 18:42:29;;;;;;;20.02;15.80;;;;;;;;;;8141572;28;20042;-60
2022/03/16 18:46:29;;;;;;;19.63;15.77;;;;;;;;;;8142115;28;20138;-60
2022/03/16 18:50:29;;;;;;;20.92;16.73;;;;;;;;;;8140948;28;20171;-60
2022/03/16 18:54:30;;;;;;;20.35;16.02;;;;;;;;;;8141777;28;20629;-59
2022/03/16 18:58:32;;;;;;;20.45;15.90;;;;;;;;;;8140817;28;20027;-59
2022/03/16 19:02:33;;;;;;;24.10;16.50;;;;;;;;;;8139787;28;20432;-59
2022/03/16 19:06:33;;;;;;;21.65;17.10;;;;;;;;;;8141408;28;20309;-59
2022/03/16 19:10:33;;;;;;;19.92;16.13;;;;;;;;;;8141534;28;20118;-59
2022/03/16 19:14:34;;;;;;;31.40;20.48;;;;;;;;;;8141053;29;20031;-59
2022/03/16 19:18:35;;;;;;;30.88;19.35;;;;;;;;;;8142708;28;20059;-59
2022/03/16 19:22:35;;;;;;;27.35;19.25;;;;;;;;;;8140304;28;20034;-59
2022/03/16 19:26:35;;;;;;;22.42;16.52;;;;;;;;;;8140409;28;20097;-59
2022/03/16 19:30:37;;;;;;;21.83;17.37;;;;;;;;;;8139696;28;20044;-60
2022/03/16 19:34:39;;;;;;;24.55;17.05;;;;;;;;;;8139912;28;20450;-60
2022/03/16 19:38:39;;;;;;;19.30;15.68;;;;;;;;;;8140512;28;20115;-59
2022/03/16 19:42:40;;;;;;;23.52;17.30;;;;;;;;;;8139533;28;20742;-60
2022/03/16 19:46:47;;;;;;;24.58;18.35;;;;;;;;;;8140109;28;20042;-59
2022/03/16 19:50:48;;;;;;;25.92;17.52;;;;;;;;;;8139557;28;20730;-60
2022/03/16 19:54:49;;;;;;;23.42;17.58;;;;;;;;;;8140175;28;20460;-59
2022/03/16 19:58:49;;;;;;;22.17;17.67;;;;;;;;;;8138793;29;20015;-59
2022/03/16 20:02:51;;;;;;;21.92;17.10;;;;;;;;;;8139171;28;20310;-59
2022/03/16 20:06:52;;;;;;;24.30;18.05;;;;;;;;;;8137390;28;20034;-59
2022/03/16 20:10:52;;;;;;;26.08;18.10;;;;;;;;;;8138318;28;21126;-59
2022/03/16 20:14:55;;;;;;;21.27;17.70;;;;;;;;;;8139540;28;20117;-59
2022/03/16 20:18:57;;;;;;;22.02;18.08;;;;;;;;;;8138022;28;20284;-59
2022/03/16 20:22:58;;;;;;;23.30;18.35;;;;;;;;;;8140443;28;20036;-60
2022/03/16 20:26:58;;;;;;;23.80;17.63;;;;;;;;;;8138187;28;20023;-59
2022/03/16 20:30:59;;;;;;;23.50;18.52;;;;;;;;;;8137463;28;20046;-59
2022/03/16 20:35:00;;;;;;;21.92;18.55;;;;;;;;;;8139401;28;20138;-60
2022/03/16 20:39:00;;;;;;;26.10;18.13;;;;;;;;;;8139680;29;20021;-59
2022/03/16 20:43:00;;;;;;;23.67;18.38;;;;;;;;;;8137537;28;20070;-60
2022/03/16 20:47:01;;;;;;;25.55;17.83;;;;;;;;;;8138704;28;20510;-60
2022/03/16 20:51:01;;;;;;;24.10;19.05;;;;;;;;;;8137276;28;20034;-60
2022/03/16 20:55:01;;;;;;;24.23;19.60;;;;;;;;;;8139066;28;20026;-59
2022/03/16 21:03:21;;;;;;;27.38;21.55;;;;;;;;;;8138816;28;20594;-60
2022/03/16 21:07:23;;;;;;;29.25;22.27;;;;;;;;;;8135792;28;20027;-59
2022/03/16 21:11:24;;;;;;;28.80;21.95;;;;;;;;;;8135794;28;20061;-59
2022/03/16 21:15:25;;;;;;;24.08;19.20;;;;;;;;;;8138875;28;20043;-60
2022/03/16 21:19:25;;;;;;;37.50;26.20;;;;;;;;;;8137649;28;20329;-60
2022/03/16 21:23:26;;;;;;;31.23;23.13;;;;;;;;;;8137230;28;21022;-60
2022/03/16 21:27:27;;;;;;;33.05;25.10;;;;;;;;;;8134990;28;20984;-59
2022/03/16 21:31:28;;;;;;;33.13;23.95;;;;;;;;;;8136626;28;20146;-60
2022/03/16 21:35:29;;;;;;;39.78;26.48;;;;;;;;;;8136904;28;20587;-60
2022/03/16 21:39:29;;;;;;;28.40;22.08;;;;;;;;;;8141995;28;20039;-59
2022/03/16 21:43:29;;;;;;;29.95;21.65;;;;;;;;;;8144631;29;20450;-60
2022/03/16 21:47:30;;;;;;;24.45;19.38;;;;;;;;;;8145512;28;20051;-59
2022/03/16 21:51:39;;;;;;;26.40;19.83;;;;;;;;;;8142995;28;20034;-59
2022/03/16 21:55:40;;;;;;;26.77;20.42;;;;;;;;;;8142133;28;20531;-60
2022/03/16 21:59:41;;;;;;;28.00;21.23;;;;;;;;;;8143920;28;20031;-60
2022/03/16 22:03:45;;;;;;;25.40;20.58;;;;;;;;;;8143960;28;20043;-59
2022/03/16 22:07:45;;;;;;;26.05;20.70;;;;;;;;;;8139318;28;20963;-59
2022/03/16 22:11:45;;;;;;;25.65;19.77;;;;;;;;;;8142853;28;20373;-59
2022/03/16 22:15:47;;;;;;;26.25;20.00;;;;;;;;;;8141719;28;20055;-59
2022/03/16 22:19:47;;;;;;;27.20;21.48;;;;;;;;;;8142693;28;20322;-59
2022/03/16 22:23:47;;;;;;;32.13;23.02;;;;;;;;;;8140065;28;20137;-59
2022/03/16 22:27:48;;;;;;;29.98;22.73;;;;;;;;;;8143940;28;20544;-60
2022/03/16 22:31:48;;;;;;;37.58;23.65;;;;;;;;;;8140334;28;20520;-60
2022/03/16 22:35:49;;;;;;;36.40;23.23;;;;;;;;;;8142916;28;20355;-59
2022/03/16 22:39:49;;;;;;;31.80;22.77;;;;;;;;;;8140445;28;20035;-59
2022/03/16 22:43:49;;;;;;;35.72;24.13;;;;;;;;;;8137499;28;20273;-60
2022/03/16 22:47:50;;;;;;;34.75;23.20;;;;;;;;;;8140869;28;20042;-60
2022/03/16 22:51:50;;;;;;;34.13;22.73;;;;;;;;;;8137538;28;20086;-59
2022/03/16 22:55:50;;;;;;;32.22;22.55;;;;;;;;;;8141413;28;20627;-60
2022/03/16 22:59:50;;;;;;;30.58;22.48;;;;;;;;;;8142797;29;20036;-59
2022/03/16 23:03:51;;;;;;;29.63;22.80;;;;;;;;;;8139343;28;20031;-59
2022/03/16 23:07:51;;;;;;;29.17;22.25;;;;;;;;;;8141022;29;20090;-59
2022/03/16 23:11:51;;;;;;;29.25;21.50;;;;;;;;;;8137419;28;20075;-59
2022/03/16 23:15:52;;;;;;;27.52;21.90;;;;;;;;;;8136378;28;20162;-60
2022/03/16 23:19:52;;;;;;;25.10;21.30;;;;;;;;;;8141820;28;20031;-59
2022/03/16 23:23:54;;;;;;;31.60;21.67;;;;;;;;;;8138633;28;20291;-59
2022/03/16 23:27:54;;;;;;;39.72;23.27;;;;;;;;;;8141253;28;20035;-59
2022/03/16 23:31:54;;;;;;;34.92;23.65;;;;;;;;;;8139394;28;20128;-60
2022/03/16 23:35:56;;;;;;;31.27;22.77;;;;;;;;;;8141283;28;20378;-60
2022/03/16 23:39:56;;;;;;;35.05;24.95;;;;;;;;;;8139290;28;20023;-59
2022/03/16 23:43:56;;;;;;;31.45;23.80;;;;;;;;;;8141037;29;20325;-60
2022/03/16 23:47:56;;;;;;;33.78;25.05;;;;;;;;;;8138230;28;20556;-60
2022/03/16 23:51:57;;;;;;;29.27;22.80;;;;;;;;;;8138468;28;20630;-59
2022/03/16 23:55:59;;;;;;;31.50;23.38;;;;;;;;;;8137064;28;20042;-59